Nasco Pearl — VRHS2 — position and weather

sailwx.info

Track history (hours):
 
Tides and Currents Weather Stations Pressure Air Temp Water Temp Dewpoint Dewpoint Depression Visibility Wind Speed Wind Dir Waves Ship Positions

Nasco Pearl

Last reported at 2017-Dec-18 12:05 UTC. Time now 2017-Dec-18 22:33 UTC.
Position N 41°24' E 139°03'.

Length 189 m; draft 6.6 m.

Type: Cargo ship. MMSI: 477982400.

Date/timePositionNaut miles runAvg speedWind from/ knotsBaromVisibWave heightAir tempDewpointWater temp
2017-Dec-18 12:05N 41°24' E 139°03'211.6
2017-Dec-18 11:55N 41°24' E 139°06'511.5
2017-Dec-18 11:30N 41°23' E 139°12'911.9
2017-Dec-18 10:47N 41°20' E 139°23'412.0
2017-Dec-18 10:29N 41°19' E 139°27'5010.7
2017-Dec-18 05:49N 41°30' E 140°32'712.4
2017-Dec-18 05:18N 41°33' E 140°39'412.6
2017-Dec-18 05:01N 41°35' E 140°43'611.8
2017-Dec-18 04:30N 41°38' E 140°50'511.0
2017-Dec-18 04:01N 41°38' E 140°58'510.1
2017-Dec-18 03:31N 41°38' E 141°04'611.6
2017-Dec-18 03:01N 41°38' E 141°12'611.6
2017-Dec-18 02:30N 41°36' E 141°20'1610.8
2017-Dec-18 01:01N 41°28' E 141°38'  
Track history (hours):
 
Tides and Currents Weather Stations Pressure Air Temp Water Temp Dewpoint Dewpoint Depression Visibility Wind Speed Wind Dir Waves Ship Positions

Nasco Pearl

Last reported at 2017-Dec-18 12:05 UTC. Time now 2017-Dec-18 22:33 UTC.
Position N 41°24' E 139°03'.

Length 189 m; draft 6.6 m.

Type: Cargo ship. MMSI: 477982400.

Date/timePositionNaut miles runAvg speedWind from/ knotsBaromVisibWave heightAir tempDewpointWater temp
2017-Dec-18 12:05N 41°24' E 139°03'211.6
2017-Dec-18 11:55N 41°24' E 139°06'511.5
2017-Dec-18 11:30N 41°23' E 139°12'911.9
2017-Dec-18 10:47N 41°20' E 139°23'412.0
2017-Dec-18 10:29N 41°19' E 139°27'5010.7
2017-Dec-18 05:49N 41°30' E 140°32'712.4
2017-Dec-18 05:18N 41°33' E 140°39'412.6
2017-Dec-18 05:01N 41°35' E 140°43'611.8
2017-Dec-18 04:30N 41°38' E 140°50'511.0
2017-Dec-18 04:01N 41°38' E 140°58'510.1
2017-Dec-18 03:31N 41°38' E 141°04'611.6
2017-Dec-18 03:01N 41°38' E 141°12'611.6
2017-Dec-18 02:30N 41°36' E 141°20'1610.8
2017-Dec-18 01:01N 41°28' E 141°38'  

Dump ship's entire track history